createdAt,value
2019-01-30T00:01:27.733Z,22.30
2019-01-30T00:03:58.238Z,23.40
2019-01-30T00:06:28.785Z,22.00
2019-01-30T00:08:59.291Z,23.73
2019-01-30T00:11:29.767Z,24.57
2019-01-30T00:14:00.285Z,25.83
2019-01-30T00:16:30.813Z,26.17
2019-01-30T00:19:03.346Z,24.60
2019-01-30T00:21:33.832Z,25.73
2019-01-30T00:24:04.448Z,21.77
2019-01-30T00:26:34.967Z,20.40
2019-01-30T00:29:05.709Z,20.70
2019-01-30T00:31:36.202Z,22.43
2019-01-30T00:34:06.669Z,23.17
2019-01-30T00:36:37.165Z,21.40
2019-01-30T00:39:08.264Z,21.20
2019-01-30T00:41:38.760Z,22.47
2019-01-30T00:44:09.236Z,20.90
2019-01-30T00:46:39.732Z,22.13
2019-01-30T00:49:10.193Z,19.60
2019-01-30T00:51:40.704Z,20.93
2019-01-30T00:54:11.252Z,21.20
2019-01-30T00:56:41.740Z,22.43
2019-01-30T00:59:12.250Z,22.37
2019-01-30T01:01:42.786Z,20.13
2019-01-30T01:04:13.362Z,20.77
2019-01-30T01:06:43.825Z,22.50
2019-01-30T01:09:14.397Z,21.27
2019-01-30T01:11:44.860Z,21.17
2019-01-30T01:14:15.354Z,21.77
2019-01-30T01:16:45.824Z,23.93
2019-01-30T01:19:16.398Z,20.10
2019-01-30T01:21:46.892Z,24.50
2019-01-30T01:24:17.382Z,21.70
2019-01-30T01:26:47.850Z,22.03
2019-01-30T01:29:18.346Z,21.53
2019-01-30T01:31:48.816Z,21.63
2019-01-30T01:34:19.305Z,23.80
2019-01-30T01:36:49.785Z,22.10
2019-01-30T01:39:20.342Z,22.07
2019-01-30T01:41:50.806Z,22.17
2019-01-30T01:44:21.301Z,21.77
2019-01-30T01:46:51.766Z,22.50
2019-01-30T01:49:22.273Z,22.87
2019-01-30T01:51:52.768Z,20.87
2019-01-30T01:54:23.230Z,22.30
2019-01-30T01:56:53.731Z,19.50
2019-01-30T01:59:24.200Z,20.47
2019-01-30T02:01:54.693Z,22.77
2019-01-30T02:04:25.286Z,20.40
2019-01-30T02:06:55.739Z,21.60
2019-01-30T02:09:26.235Z,22.00
2019-01-30T02:11:56.694Z,22.13
2019-01-30T02:14:27.191Z,22.00
2019-01-30T02:16:57.654Z,21.00
2019-01-30T02:19:28.140Z,22.17
2019-01-30T02:21:58.648Z,21.27
2019-01-30T02:24:29.111Z,24.40
2019-01-30T02:26:59.610Z,26.03
2019-01-30T02:29:30.099Z,23.90
2019-01-30T02:32:00.570Z,21.73
2019-01-30T02:34:31.061Z,21.10
2019-01-30T02:37:01.537Z,21.57
2019-01-30T02:39:32.019Z,22.40
2019-01-30T02:42:02.508Z,20.90
2019-01-30T02:44:32.973Z,20.63
2019-01-30T02:47:03.478Z,21.83
2019-01-30T02:49:33.956Z,21.33
2019-01-30T02:52:04.591Z,20.57
2019-01-30T02:54:35.089Z,22.30
2019-01-30T02:57:05.921Z,20.13
2019-01-30T02:59:36.413Z,21.03
2019-01-30T03:02:11.317Z,21.13
2019-01-30T03:04:41.804Z,21.20
2019-01-30T03:07:12.273Z,20.60
2019-01-30T03:09:42.776Z,19.50
2019-01-30T03:12:13.239Z,21.27
2019-01-30T03:14:43.743Z,20.00
2019-01-30T03:17:14.235Z,20.00
2019-01-30T03:19:44.692Z,19.27
2019-01-30T03:22:15.204Z,20.97
2019-01-30T03:24:45.667Z,21.17
2019-01-30T03:27:16.160Z,20.83
2019-01-30T03:29:46.638Z,22.50
2019-01-30T03:32:17.134Z,20.80
2019-01-30T03:34:47.593Z,22.77
2019-01-30T03:37:18.083Z,22.13
2019-01-30T03:39:48.557Z,22.03
2019-01-30T03:42:19.202Z,22.47
2019-01-30T03:44:49.667Z,20.60
2019-01-30T03:47:20.186Z,23.00
2019-01-30T03:49:50.663Z,21.80
2019-01-30T03:52:21.191Z,21.30
2019-01-30T03:54:51.669Z,22.37
2019-01-30T03:57:22.163Z,22.87
2019-01-30T03:59:52.627Z,20.63
2019-01-30T04:02:23.119Z,21.27
2019-01-30T04:04:53.617Z,21.17
2019-01-30T04:07:24.084Z,23.20
2019-01-30T04:09:54.575Z,22.07
2019-01-30T04:12:25.070Z,24.37
2019-01-30T04:14:55.651Z,21.00
2019-01-30T04:17:26.145Z,22.60
2019-01-30T04:19:56.614Z,20.67
2019-01-30T04:22:27.097Z,20.30
2019-01-30T04:24:57.838Z,22.43
2019-01-30T04:27:28.326Z,21.37
2019-01-30T04:29:58.818Z,20.10
2019-01-30T04:32:29.313Z,21.03
2019-01-30T04:34:59.770Z,20.37
2019-01-30T04:37:30.318Z,21.13
2019-01-30T04:40:00.788Z,19.33
2019-01-30T04:42:31.291Z,20.60
2019-01-30T04:45:02.129Z,21.03
2019-01-30T04:47:32.726Z,20.70
2019-01-30T04:50:03.235Z,19.13
2019-01-30T04:52:33.711Z,20.93
2019-01-30T04:55:06.446Z,20.17
2019-01-30T04:57:36.906Z,18.53
2019-01-30T05:00:39.823Z,20.43
2019-01-30T05:03:10.357Z,19.60
2019-01-30T05:05:40.819Z,20.47
2019-01-30T05:08:11.381Z,20.87
2019-01-30T05:10:41.845Z,20.57
2019-01-30T05:13:12.342Z,23.10
2019-01-30T05:15:42.810Z,20.27
2019-01-30T05:18:13.307Z,21.40
2019-01-30T05:20:43.850Z,25.63
2019-01-30T05:23:14.356Z,23.07
2019-01-30T05:25:44.823Z,24.53
2019-01-30T05:28:15.319Z,25.27
2019-01-30T05:30:45.859Z,27.20
2019-01-30T05:33:16.358Z,25.37
2019-01-30T05:35:46.827Z,24.17
2019-01-30T05:38:17.342Z,26.17
2019-01-30T05:40:47.829Z,26.63
2019-01-30T05:43:18.306Z,27.13
2019-01-30T05:45:48.774Z,28.33
2019-01-30T05:48:19.274Z,27.77
2019-01-30T05:50:49.765Z,29.60
2019-01-30T05:53:20.232Z,28.97
2019-01-30T05:55:50.784Z,29.10
2019-01-30T05:58:21.279Z,27.40
2019-01-30T06:00:51.776Z,29.20
2019-01-30T06:03:22.354Z,27.93
2019-01-30T06:05:52.916Z,27.47
2019-01-30T06:08:23.375Z,28.27
2019-01-30T06:10:53.942Z,27.03
2019-01-30T06:13:24.418Z,27.47
2019-01-30T06:15:54.922Z,28.27
2019-01-30T06:18:25.413Z,27.00
2019-01-30T06:20:55.908Z,27.57
2019-01-30T06:23:26.415Z,29.37
2019-01-30T06:25:56.874Z,27.63
2019-01-30T06:28:29.369Z,25.97
2019-01-30T06:30:59.587Z,26.73
2019-01-30T06:33:30.095Z,27.97
2019-01-30T06:36:00.558Z,29.60
2019-01-30T06:38:31.041Z,30.20
2019-01-30T06:41:01.547Z,29.80
2019-01-30T06:43:32.082Z,30.07
2019-01-30T06:46:02.642Z,31.03
2019-01-30T06:48:33.132Z,28.90
2019-01-30T06:51:03.645Z,31.07
2019-01-30T06:53:34.104Z,32.33
2019-01-30T06:56:04.685Z,36.40
2019-01-30T06:58:35.147Z,32.27
2019-01-30T07:01:08.202Z,28.43
2019-01-30T07:03:38.698Z,29.73
2019-01-30T07:06:09.165Z,31.47
2019-01-30T07:08:39.668Z,33.20
2019-01-30T07:11:11.039Z,31.67
2019-01-30T07:13:41.700Z,32.87
2019-01-30T07:16:12.193Z,33.87
2019-01-30T07:18:42.696Z,35.07
2019-01-30T07:21:13.156Z,35.50
2019-01-30T07:23:43.665Z,34.27
2019-01-30T07:26:14.115Z,47.23
2019-01-30T07:28:44.601Z,33.40
2019-01-30T07:31:15.093Z,30.23
2019-01-30T07:33:45.548Z,35.73
2019-01-30T07:36:16.056Z,30.80
2019-01-30T07:38:46.513Z,30.67
2019-01-30T07:41:17.083Z,31.13
2019-01-30T07:43:47.542Z,29.97
2019-01-30T07:46:18.036Z,26.30
2019-01-30T07:48:48.500Z,25.20
2019-01-30T07:51:18.995Z,26.27
2019-01-30T07:53:49.465Z,23.63
2019-01-30T07:56:19.944Z,24.23
2019-01-30T07:58:51.726Z,24.87
2019-01-30T08:01:22.307Z,23.20
2019-01-30T08:03:52.779Z,23.57
2019-01-30T08:06:23.270Z,22.60
2019-01-30T08:08:53.810Z,21.80
2019-01-30T08:11:26.653Z,22.50
2019-01-30T08:13:57.123Z,23.47
2019-01-30T08:16:27.587Z,20.47
2019-01-30T08:18:58.096Z,20.30
2019-01-30T08:21:28.551Z,18.27
2019-01-30T08:23:59.461Z,18.90
2019-01-30T08:26:30.440Z,18.97
2019-01-30T08:29:01.445Z,17.97
2019-01-30T08:31:32.109Z,18.77
2019-01-30T08:34:02.661Z,21.37
2019-01-30T08:36:33.156Z,20.17
2019-01-30T08:39:06.063Z,23.20
2019-01-30T08:41:36.600Z,23.83
2019-01-30T08:44:07.225Z,24.20
2019-01-30T08:46:37.727Z,24.00
2019-01-30T08:49:08.181Z,21.57
2019-01-30T08:51:38.672Z,23.00
2019-01-30T08:54:09.257Z,22.03
2019-01-30T08:56:52.407Z,19.27
2019-01-30T08:59:11.998Z,17.40
2019-01-30T09:01:42.469Z,15.80
2019-01-30T09:04:12.941Z,17.40
2019-01-30T09:06:43.423Z,17.77
2019-01-30T09:09:13.915Z,17.67
2019-01-30T09:11:44.420Z,16.47
2019-01-30T09:14:14.949Z,17.10
2019-01-30T09:16:45.443Z,16.10
2019-01-30T09:19:15.937Z,16.80
2019-01-30T09:21:46.397Z,17.07
2019-01-30T09:24:16.896Z,29.47
2019-01-30T09:26:47.388Z,21.57
2019-01-30T09:29:17.890Z,15.60
2019-01-30T09:31:48.411Z,16.10
2019-01-30T09:34:18.920Z,15.20
2019-01-30T09:36:49.407Z,14.97
2019-01-30T09:39:19.927Z,15.00
2019-01-30T09:41:50.394Z,14.87
2019-01-30T09:44:20.917Z,16.23
2019-01-30T09:46:51.356Z,16.33
2019-01-30T09:49:21.860Z,15.03
2019-01-30T09:51:52.367Z,16.93
2019-01-30T09:54:22.800Z,15.27
2019-01-30T09:56:53.310Z,16.80
2019-01-30T09:59:23.769Z,15.17
2019-01-30T10:01:54.266Z,16.73
2019-01-30T10:04:25.787Z,15.97
2019-01-30T10:06:56.300Z,16.90
2019-01-30T10:09:26.774Z,71.87
2019-01-30T10:11:57.262Z,53.83
2019-01-30T10:14:27.725Z,23.07
2019-01-30T10:16:58.246Z,19.70
2019-01-30T10:19:28.704Z,18.87
2019-01-30T10:21:59.193Z,20.47
2019-01-30T10:24:29.702Z,20.30
2019-01-30T10:27:00.187Z,17.47
2019-01-30T10:29:30.672Z,16.83
2019-01-30T10:32:01.124Z,16.63
2019-01-30T10:34:32.751Z,17.90
2019-01-30T10:37:03.728Z,16.70
2019-01-30T10:39:34.385Z,15.80
2019-01-30T10:42:06.389Z,15.40
2019-01-30T10:44:36.918Z,17.43
2019-01-30T10:47:07.427Z,17.10
2019-01-30T10:49:37.952Z,17.83
2019-01-30T10:52:08.719Z,16.77
2019-01-30T10:54:39.182Z,16.00
2019-01-30T10:57:09.756Z,17.23
2019-01-30T10:59:40.214Z,16.57
2019-01-30T11:02:10.834Z,17.37
2019-01-30T11:04:41.338Z,16.67
2019-01-30T11:07:11.817Z,15.50
2019-01-30T11:09:42.404Z,15.03
2019-01-30T11:12:12.864Z,16.37
2019-01-30T11:14:43.372Z,16.57
2019-01-30T11:17:13.843Z,16.97
2019-01-30T11:19:45.516Z,18.03
2019-01-30T11:22:16.068Z,17.10
2019-01-30T11:24:46.645Z,16.50
2019-01-30T11:27:17.241Z,18.37
2019-01-30T11:29:47.740Z,17.67
2019-01-30T11:32:18.268Z,16.30
2019-01-30T11:34:48.776Z,17.87
2019-01-30T11:37:19.237Z,16.70
2019-01-30T11:39:49.720Z,17.90
2019-01-30T11:42:20.182Z,18.40
2019-01-30T11:44:50.663Z,17.10
2019-01-30T11:47:21.122Z,16.60
2019-01-30T11:49:51.613Z,17.53
2019-01-30T11:52:22.085Z,17.17
2019-01-30T11:54:52.574Z,17.70
2019-01-30T11:57:23.121Z,15.80
2019-01-30T11:59:53.632Z,16.83
2019-01-30T12:02:24.130Z,15.87
2019-01-30T12:04:54.701Z,15.17
2019-01-30T12:07:25.162Z,17.37
2019-01-30T12:09:56.038Z,17.00
2019-01-30T12:12:28.141Z,16.33
2019-01-30T12:14:58.637Z,16.50
2019-01-30T12:17:29.103Z,19.17
2019-01-30T12:19:59.592Z,17.60
2019-01-30T12:22:30.056Z,16.97
2019-01-30T12:25:00.547Z,16.40
2019-01-30T12:27:31.016Z,17.80
2019-01-30T12:30:01.524Z,16.47
2019-01-30T12:32:31.985Z,17.60
2019-01-30T12:35:02.473Z,15.73
2019-01-30T12:37:32.952Z,15.83
2019-01-30T12:40:05.154Z,14.33
2019-01-30T12:42:35.705Z,18.10
2019-01-30T12:45:13.568Z,16.60
2019-01-30T12:47:44.093Z,17.23
2019-01-30T12:50:14.692Z,15.00
2019-01-30T12:52:45.263Z,17.33
2019-01-30T12:55:16.083Z,17.40
2019-01-30T12:57:46.611Z,16.67
2019-01-30T13:00:24.009Z,15.57
2019-01-30T13:02:54.623Z,17.13
2019-01-30T13:05:26.743Z,15.60
2019-01-30T13:07:57.206Z,15.20
2019-01-30T13:10:27.784Z,15.70
2019-01-30T13:12:58.241Z,16.20
2019-01-30T13:15:31.932Z,15.27
2019-01-30T13:18:02.402Z,15.87
2019-01-30T13:20:32.882Z,14.37
2019-01-30T13:23:03.343Z,15.37
2019-01-30T13:25:34.342Z,16.67
2019-01-30T13:28:05.782Z,17.10
2019-01-30T13:30:39.069Z,17.50
2019-01-30T13:33:10.767Z,16.10
2019-01-30T13:35:41.361Z,15.77
2019-01-30T13:38:11.873Z,17.87
2019-01-30T13:40:42.667Z,15.73
2019-01-30T13:43:13.172Z,14.80
2019-01-30T13:45:43.690Z,15.57
2019-01-30T13:48:14.591Z,17.53
2019-01-30T13:50:45.091Z,16.37
2019-01-30T13:53:15.627Z,16.83
2019-01-30T13:55:46.191Z,18.50
2019-01-30T13:58:16.665Z,16.60
2019-01-30T14:00:47.226Z,15.90
2019-01-30T14:03:17.701Z,17.37
2019-01-30T14:05:48.236Z,17.07
2019-01-30T14:08:20.244Z,16.37
2019-01-30T14:10:50.752Z,17.20
2019-01-30T14:13:21.298Z,16.73
2019-01-30T14:15:51.797Z,15.30
2019-01-30T14:18:22.330Z,16.33
2019-01-30T14:20:52.839Z,16.50
2019-01-30T14:23:23.303Z,16.87
2019-01-30T14:25:53.891Z,19.20
2019-01-30T14:28:24.374Z,16.37
2019-01-30T14:30:54.917Z,19.10
2019-01-30T14:33:25.452Z,18.47
2019-01-30T14:35:55.986Z,16.50
2019-01-30T14:38:26.593Z,16.83
2019-01-30T14:40:57.069Z,19.03
2019-01-30T14:43:27.556Z,18.27
2019-01-30T14:45:58.076Z,18.30
2019-01-30T14:48:28.516Z,20.53
2019-01-30T14:50:58.986Z,19.87
2019-01-30T14:53:29.523Z,21.00
2019-01-30T14:56:00.069Z,20.37
2019-01-30T14:58:30.603Z,19.13
2019-01-30T15:01:01.067Z,20.30
2019-01-30T15:03:31.559Z,21.43
2019-01-30T15:06:02.087Z,20.47
2019-01-30T15:08:32.624Z,21.27
2019-01-30T15:11:03.226Z,21.13
2019-01-30T15:13:33.794Z,21.10
2019-01-30T15:16:04.405Z,20.83
2019-01-30T15:18:34.864Z,19.80
2019-01-30T15:21:05.807Z,17.67
2019-01-30T15:23:36.299Z,17.03
2019-01-30T15:26:06.903Z,17.87
2019-01-30T15:28:37.411Z,18.90
2019-01-30T15:31:07.869Z,18.50
2019-01-30T15:33:38.407Z,22.20
2019-01-30T15:36:08.865Z,19.13
2019-01-30T15:38:39.367Z,19.57
2019-01-30T15:41:09.939Z,19.70
2019-01-30T15:43:40.389Z,21.10
2019-01-30T15:46:10.854Z,21.07
2019-01-30T15:48:41.361Z,19.40
2019-01-30T15:51:11.818Z,19.67
2019-01-30T15:53:42.619Z,23.50
2019-01-30T15:56:13.116Z,21.37
2019-01-30T15:58:45.251Z,22.40
2019-01-30T16:01:16.069Z,22.70
2019-01-30T16:03:46.536Z,24.00
2019-01-30T16:06:17.040Z,23.47
2019-01-30T16:08:47.568Z,21.77
2019-01-30T16:11:18.042Z,22.00
2019-01-30T16:13:48.556Z,22.13
2019-01-30T16:16:19.176Z,22.30
2019-01-30T16:18:49.666Z,23.10
2019-01-30T16:21:20.174Z,22.43
2019-01-30T16:23:50.702Z,21.17
2019-01-30T16:26:21.252Z,21.90
2019-01-30T16:28:51.731Z,22.43
2019-01-30T16:31:22.231Z,20.60
2019-01-30T16:33:52.739Z,20.60
2019-01-30T16:36:25.187Z,23.60
2019-01-30T16:38:55.888Z,23.80
2019-01-30T16:41:26.380Z,22.80
2019-01-30T16:43:56.891Z,23.80
2019-01-30T16:46:27.350Z,23.17
2019-01-30T16:48:57.852Z,23.67
2019-01-30T16:51:28.312Z,28.43
2019-01-30T16:53:58.810Z,35.40
2019-01-30T16:56:29.269Z,26.97
2019-01-30T16:58:59.769Z,25.07
2019-01-30T17:01:30.226Z,27.13
2019-01-30T17:04:00.723Z,26.40
2019-01-30T17:06:31.183Z,30.87
2019-01-30T17:09:01.688Z,29.20
2019-01-30T17:11:32.219Z,47.47
2019-01-30T17:14:02.814Z,36.03
2019-01-30T17:16:36.227Z,36.87
2019-01-30T17:19:07.574Z,34.87
2019-01-30T17:21:38.105Z,35.07
2019-01-30T17:24:08.602Z,35.73
2019-01-30T17:26:39.222Z,34.30
2019-01-30T17:29:09.734Z,35.87
2019-01-30T17:31:40.201Z,40.70
2019-01-30T17:34:10.690Z,43.50
2019-01-30T17:36:41.184Z,40.70
2019-01-30T17:39:11.634Z,43.37
2019-01-30T17:41:44.166Z,40.60
2019-01-30T17:44:14.671Z,42.50
2019-01-30T17:46:45.159Z,39.37
2019-01-30T17:49:15.619Z,37.70
2019-01-30T17:51:46.143Z,39.30
2019-01-30T17:54:18.276Z,37.57
2019-01-30T17:56:48.916Z,39.80
2019-01-30T17:59:19.409Z,38.83
2019-01-30T18:01:49.874Z,37.03
2019-01-30T18:04:20.335Z,40.10
2019-01-30T18:06:50.915Z,39.57
2019-01-30T18:09:21.446Z,42.30
2019-01-30T18:11:51.951Z,42.70
2019-01-30T18:14:22.430Z,39.97
2019-01-30T18:16:52.946Z,37.37
2019-01-30T18:19:23.446Z,36.77
2019-01-30T18:21:54.106Z,40.30
2019-01-30T18:24:24.612Z,40.87
2019-01-30T18:26:55.076Z,40.20
2019-01-30T18:29:25.571Z,37.90
2019-01-30T18:31:56.034Z,39.80
2019-01-30T18:34:26.523Z,39.07
2019-01-30T18:36:56.993Z,37.67
2019-01-30T18:39:27.491Z,38.93
2019-01-30T18:41:58.010Z,41.83
2019-01-30T18:44:28.499Z,39.30
2019-01-30T18:46:58.981Z,39.83
2019-01-30T18:49:29.548Z,41.93
2019-01-30T18:52:00.035Z,39.27
2019-01-30T18:54:30.767Z,38.73
2019-01-30T18:57:01.285Z,40.50
2019-01-30T18:59:31.750Z,38.90
2019-01-30T19:02:02.293Z,39.33
2019-01-30T19:04:33.918Z,43.10
2019-01-30T19:07:04.420Z,39.23
2019-01-30T19:09:34.900Z,40.67
2019-01-30T19:12:05.726Z,41.00
2019-01-30T19:14:36.187Z,39.50
2019-01-30T19:17:06.916Z,42.13
2019-01-30T19:19:37.375Z,38.40
2019-01-30T19:22:10.159Z,41.30
2019-01-30T19:24:40.128Z,42.60
2019-01-30T19:27:10.698Z,41.90
2019-01-30T19:29:41.199Z,41.73
2019-01-30T19:32:12.650Z,41.30
2019-01-30T19:34:43.185Z,40.50
2019-01-30T19:37:13.637Z,38.77
2019-01-30T19:39:44.134Z,40.00
2019-01-30T19:42:14.587Z,40.67
2019-01-30T19:44:47.917Z,39.60
2019-01-30T19:47:18.506Z,37.10
2019-01-30T19:49:48.998Z,37.13
2019-01-30T19:52:19.559Z,39.57
2019-01-30T19:54:50.049Z,39.20
2019-01-30T19:57:20.620Z,42.70
2019-01-30T19:59:51.088Z,40.80
2019-01-30T20:02:21.571Z,37.70
2019-01-30T20:04:52.145Z,35.50
2019-01-30T20:07:22.604Z,37.90
2019-01-30T20:09:53.129Z,36.87
2019-01-30T20:12:23.774Z,37.03
2019-01-30T20:14:54.247Z,39.07
2019-01-30T20:17:24.798Z,36.07
2019-01-30T20:19:55.320Z,37.73
2019-01-30T20:22:25.816Z,38.73
2019-01-30T20:24:56.305Z,39.20
2019-01-30T20:27:26.797Z,34.60
2019-01-30T20:29:57.289Z,37.37
2019-01-30T20:32:29.281Z,37.07
2019-01-30T20:34:59.774Z,35.40
2019-01-30T20:37:30.244Z,39.07
2019-01-30T20:40:00.751Z,40.70
2019-01-30T20:42:31.213Z,39.63
2019-01-30T20:45:01.712Z,39.20
2019-01-30T20:47:32.199Z,38.97
2019-01-30T20:50:02.685Z,35.33
2019-01-30T20:52:33.198Z,37.87
2019-01-30T20:55:04.649Z,37.97
2019-01-30T20:57:35.262Z,37.60
2019-01-30T21:00:13.150Z,37.47
2019-01-30T21:02:43.712Z,38.17
2019-01-30T21:05:14.510Z,39.60
2019-01-30T21:07:45.002Z,38.90
2019-01-30T21:10:25.281Z,38.33
2019-01-30T21:12:55.775Z,40.07
2019-01-30T21:15:28.445Z,40.47
2019-01-30T21:17:59.966Z,48.70
2019-01-30T21:20:30.497Z,46.30
2019-01-30T21:23:01.312Z,44.70
2019-01-30T21:25:31.843Z,45.70
2019-01-30T21:28:02.348Z,44.50
2019-01-30T21:30:38.465Z,43.73
2019-01-30T21:33:13.299Z,46.27
2019-01-30T21:35:43.776Z,45.93
2019-01-30T21:38:14.248Z,44.33
2019-01-30T21:40:45.714Z,43.37
2019-01-30T21:43:16.172Z,46.00
2019-01-30T21:45:46.794Z,37.87
2019-01-30T21:48:17.251Z,40.87
2019-01-30T21:50:47.736Z,37.77
2019-01-30T21:53:18.887Z,39.63
2019-01-30T21:55:49.346Z,41.57
2019-01-30T21:58:19.849Z,40.70
2019-01-30T22:00:50.378Z,39.13
2019-01-30T22:03:20.886Z,40.23
2019-01-30T22:05:51.431Z,38.90
2019-01-30T22:08:21.908Z,41.57
2019-01-30T22:10:55.076Z,41.80
2019-01-30T22:13:25.552Z,41.80
2019-01-30T22:15:56.068Z,42.77
2019-01-30T22:18:26.557Z,44.50
2019-01-30T22:20:57.063Z,42.90
2019-01-30T22:23:27.579Z,45.67
2019-01-30T22:25:58.104Z,46.87
2019-01-30T22:28:28.601Z,45.20
2019-01-30T22:30:59.125Z,44.27
2019-01-30T22:33:31.262Z,41.83
2019-01-30T22:36:01.771Z,45.30
2019-01-30T22:38:32.279Z,41.57
2019-01-30T22:41:02.787Z,44.27
2019-01-30T22:43:33.313Z,42.10
2019-01-30T22:46:03.980Z,44.40
2019-01-30T22:48:34.466Z,40.47
2019-01-30T22:51:05.052Z,43.83
2019-01-30T22:53:35.532Z,41.83
2019-01-30T22:56:06.323Z,41.23
2019-01-30T22:58:36.868Z,39.80
2019-01-30T23:01:14.834Z,42.33
2019-01-30T23:03:55.814Z,39.87
2019-01-30T23:06:48.294Z,38.80
2019-01-30T23:09:41.892Z,40.97
2019-01-30T23:12:48.605Z,41.80
2019-01-30T23:15:54.094Z,40.83
2019-01-30T23:18:47.238Z,36.10
2019-01-30T23:21:31.477Z,38.00
2019-01-30T23:24:32.425Z,38.53
2019-01-30T23:27:10.587Z,35.87
2019-01-30T23:30:08.319Z,34.97
2019-01-30T23:33:07.640Z,40.83
2019-01-30T23:35:57.090Z,41.30
2019-01-30T23:38:47.065Z,40.77
2019-01-30T23:41:44.536Z,39.90
2019-01-30T23:44:25.211Z,39.47
2019-01-30T23:47:00.424Z,40.43
2019-01-30T23:49:40.787Z,40.93
2019-01-30T23:52:51.708Z,40.40
2019-01-30T23:55:32.322Z,41.53
2019-01-30T23:58:19.256Z,40.13
